DAUL

Laghouat Airport

Laghouat, Algeria
METAR DAUL 211500Z 15010KT CAVOK 27/05 Q1018
Observed Flight Rules
Apr-21 @ 15:00 UTC (40 minutes ago) Visual Flight Rules
Wind Visibility Clouds
150° at 10 knots 10,000+ meters
  • Clear skies
Temperatures Readings
Current 27°C / 81°F
Dewpoint 5°C / 41°F
Humidity 24%
Altimeter 30.06" Hg
Pressure 1018 hPa
Elevation 765
METAR DAUL 211500Z 15010KT CAVOK 27/05 Q1018
Observed Flight Rules
Apr-21 @ 15:00 UTC
(40 minutes ago)
VFR
Wind Visibility
150° at 10 knots 10,000+ meters
Clouds
  • Clear skies
Temperature Dewpoint
27°C / 81°F 5°C / 41°F
Humidity Altimeter Pressure
24% 30.06" Hg 1018 hPa